Time;durP1;ratioP1;P1;durP2;ratioP2;P2;SDS_P1;SDS_P2;PMS_P1;PMS_P2;Temp;Humidity;BMP_temperature;BMP_pressure;BME280_temperature;BME280_humidity;BME280_pressure;Samples;Min_cycle;Max_cycle;Signal;HPM_P1;HPM_P2
2022/12/02 00:01:34;;;;;;;0.10;0.10;;;5.10;99.90;;;;;;5064951;28;20242;-81
2022/12/02 00:04:01;;;;;;;0.10;0.10;;;5.10;99.90;;;;;;5065547;28;20682;-81
2022/12/02 00:06:31;;;;;;;0.10;0.10;;;5.20;99.90;;;;;;5064151;28;20242;-81
2022/12/02 00:09:33;;;;;;;0.10;0.10;;;5.20;99.90;;;;;;5063531;28;20574;-81
2022/12/02 00:12:00;;;;;;;0.03;0.03;;;5.20;99.90;;;;;;5022267;28;20564;-80
2022/12/02 00:14:34;;;;;;;0.10;0.10;;;5.30;99.90;;;;;;5063419;28;20211;-81
2022/12/02 00:16:59;;;;;;;0.10;0.10;;;5.30;99.90;;;;;;5080808;28;20184;-81
2022/12/02 00:19:25;;;;;;;0.03;0.03;;;5.30;99.90;;;;;;5065637;28;21205;-81
2022/12/02 00:21:51;;;;;;;0.10;0.10;;;5.10;99.90;;;;;;5065243;28;20974;-81
2022/12/02 00:24:18;;;;;;;0.10;0.10;;;5.10;99.90;;;;;;5065010;28;20192;-81
2022/12/02 00:26:44;;;;;;;0.10;0.10;;;5.10;99.90;;;;;;5065802;28;20195;-81
2022/12/02 00:29:09;;;;;;;0.10;0.10;;;5.10;99.90;;;;;;5065874;28;20185;-82
2022/12/02 00:31:35;;;;;;;0.10;0.10;;;5.10;99.90;;;;;;5064881;28;20196;-81
2022/12/02 00:34:01;;;;;;;0.10;0.10;;;5.10;99.90;;;;;;5065766;28;20212;-81
2022/12/02 00:36:27;;;;;;;0.10;0.10;;;5.00;99.90;;;;;;5065362;28;20723;-81
2022/12/02 00:38:53;;;;;;;0.10;0.10;;;5.00;99.90;;;;;;5067100;28;20184;-81
2022/12/02 00:41:19;;;;;;;0.10;0.10;;;5.00;99.90;;;;;;5062401;28;20208;-81
2022/12/02 00:46:32;;;;;;;0.10;0.10;;;5.20;99.90;;;;;;5065849;28;20222;-81
2022/12/02 00:48:59;;;;;;;0.10;0.10;;;5.30;99.90;;;;;;5066150;28;20261;-81
2022/12/02 00:51:25;;;;;;;0.10;0.10;;;5.30;99.90;;;;;;5082412;28;20192;-80
2022/12/02 00:53:50;;;;;;;0.10;0.10;;;5.40;99.90;;;;;;5066768;28;20697;-81
2022/12/02 00:56:16;;;;;;;0.10;0.10;;;5.50;99.90;;;;;;5065075;28;20212;-81
2022/12/02 00:58:42;;;;;;;0.10;0.10;;;5.50;99.90;;;;;;5065882;28;20208;-81
2022/12/02 01:01:08;;;;;;;0.00;0.00;;;5.50;99.90;;;;;;5064297;28;20273;-81
2022/12/02 01:03:33;;;;;;;0.10;0.10;;;5.60;99.90;;;;;;5066507;28;21097;-81
2022/12/02 01:05:59;;;;;;;0.10;0.10;;;5.60;99.90;;;;;;5064381;28;20302;-81
2022/12/02 01:08:26;;;;;;;0.10;0.10;;;5.50;99.90;;;;;;5062889;28;20216;-81
2022/12/02 01:10:53;;;;;;;0.10;0.10;;;5.40;99.90;;;;;;5063440;28;20184;-81
2022/12/02 01:13:18;;;;;;;0.10;0.10;;;5.30;99.90;;;;;;5064624;28;20239;-81
2022/12/02 01:15:44;;;;;;;0.10;0.10;;;5.30;99.90;;;;;;5079823;28;20674;-80
2022/12/02 01:18:10;;;;;;;0.10;0.10;;;5.30;99.90;;;;;;5064710;28;20180;-81
2022/12/02 01:20:36;;;;;;;0.10;0.10;;;5.30;99.90;;;;;;5062851;28;20192;-80
2022/12/02 01:23:01;;;;;;;0.10;0.10;;;5.30;99.90;;;;;;5063375;28;20195;-81
2022/12/02 01:25:27;;;;;;;0.00;0.00;;;5.30;99.90;;;;;;5063051;28;20204;-81
2022/12/02 01:27:52;;;;;;;0.00;0.00;;;5.30;99.90;;;;;;5061774;28;20269;-81
2022/12/02 01:30:18;;;;;;;0.10;0.10;;;5.40;99.90;;;;;;5063612;28;20205;-81
2022/12/02 01:32:44;;;;;;;0.00;0.00;;;5.40;99.90;;;;;;5065770;28;20563;-81
2022/12/02 01:35:10;;;;;;;0.10;0.10;;;5.30;99.90;;;;;;5064646;28;20304;-81
2022/12/02 01:37:35;;;;;;;0.10;0.10;;;5.20;99.90;;;;;;5065446;28;20265;-81
2022/12/02 01:40:01;;;;;;;0.10;0.10;;;5.30;99.90;;;;;;5064480;28;20206;-81
2022/12/02 01:42:27;;;;;;;0.10;0.10;;;5.30;99.90;;;;;;5064534;28;20180;-81
2022/12/02 01:44:52;;;;;;;0.10;0.10;;;5.30;99.90;;;;;;5064540;28;20196;-81
2022/12/02 01:47:18;;;;;;;0.10;0.10;;;5.30;99.90;;;;;;5065195;28;20235;-81
2022/12/02 01:49:44;;;;;;;0.03;0.03;;;5.40;99.90;;;;;;5065548;28;20277;-81
2022/12/02 01:52:10;;;;;;;0.10;0.10;;;5.40;99.90;;;;;;5065224;28;20190;-81
2022/12/02 01:54:35;;;;;;;0.10;0.10;;;5.50;99.90;;;;;;5065763;28;20806;-80
2022/12/02 01:57:02;;;;;;;0.03;0.03;;;5.60;99.90;;;;;;5064204;28;20192;-81
2022/12/02 01:59:27;;;;;;;0.10;0.10;;;5.60;99.90;;;;;;5065376;28;20177;-81
2022/12/02 02:01:53;;;;;;;0.10;0.10;;;5.70;99.90;;;;;;5064069;28;20189;-81
2022/12/02 02:04:19;;;;;;;0.10;0.10;;;5.70;99.90;;;;;;5064311;28;20242;-81
2022/12/02 02:06:46;;;;;;;0.10;0.10;;;5.80;99.90;;;;;;5065133;28;20296;-81
2022/12/02 02:09:12;;;;;;;0.10;0.10;;;5.90;99.90;;;;;;5062318;28;20181;-81
2022/12/02 02:11:40;;;;;;;0.10;0.10;;;5.90;99.90;;;;;;5064374;28;20184;-80
2022/12/02 02:14:08;;;;;;;0.10;0.10;;;5.90;99.90;;;;;;5062296;28;20215;-81
2022/12/02 02:16:35;;;;;;;0.10;0.10;;;6.00;99.90;;;;;;5063152;28;20203;-81
2022/12/02 02:19:02;;;;;;;0.10;0.10;;;6.00;99.90;;;;;;5079630;28;20266;-82
2022/12/02 02:21:38;;;;;;;0.10;0.10;;;6.00;99.90;;;;;;5063085;28;20185;-81
2022/12/02 02:24:03;;;;;;;0.10;0.10;;;6.00;99.90;;;;;;5063870;28;20192;-81
2022/12/02 02:26:29;;;;;;;0.10;0.10;;;5.90;99.90;;;;;;5062097;28;20218;-81
2022/12/02 02:28:55;;;;;;;0.10;0.10;;;5.90;99.90;;;;;;5063064;28;20189;-81
2022/12/02 02:31:20;;;;;;;0.00;0.00;;;6.00;99.90;;;;;;5063781;28;20185;-81
2022/12/02 02:33:47;;;;;;;0.07;0.07;;;6.00;99.90;;;;;;5061280;28;20205;-81
2022/12/02 02:36:13;;;;;;;0.10;0.10;;;6.00;99.90;;;;;;5062666;28;20208;-81
2022/12/02 02:38:39;;;;;;;0.10;0.10;;;6.10;99.90;;;;;;5079858;28;20178;-81
2022/12/02 02:41:05;;;;;;;0.10;0.10;;;6.00;99.90;;;;;;5062660;28;20227;-81
2022/12/02 02:43:31;;;;;;;0.10;0.10;;;6.10;99.90;;;;;;5060916;28;20196;-82
2022/12/02 02:45:58;;;;;;;0.10;0.10;;;6.10;99.90;;;;;;5062345;28;20219;-81
2022/12/02 02:48:25;;;;;;;0.10;0.10;;;6.10;99.90;;;;;;5079394;28;20273;-81
2022/12/02 02:50:51;;;;;;;0.10;0.10;;;6.10;99.90;;;;;;5062150;28;20346;-81
2022/12/02 02:53:20;;;;;;;0.10;0.10;;;6.20;99.90;;;;;;5062686;28;20217;-81
2022/12/02 02:55:46;;;;;;;0.10;0.10;;;6.00;99.90;;;;;;5063487;28;20203;-81
2022/12/02 02:58:12;;;;;;;0.10;0.10;;;6.10;99.90;;;;;;5061923;28;20182;-81
2022/12/02 03:00:38;;;;;;;0.10;0.10;;;6.20;99.90;;;;;;5062002;28;20666;-81
2022/12/02 03:03:04;;;;;;;0.10;0.10;;;6.10;99.90;;;;;;5062918;28;20196;-81
2022/12/02 03:05:30;;;;;;;0.10;0.10;;;6.10;99.90;;;;;;5063646;28;20196;-81
2022/12/02 03:07:55;;;;;;;0.10;0.10;;;6.10;99.90;;;;;;5063495;28;20191;-81
2022/12/02 03:10:21;;;;;;;0.10;0.10;;;6.10;99.90;;;;;;5063860;28;20267;-81
2022/12/02 03:12:52;;;;;;;0.10;0.10;;;6.10;99.90;;;;;;5062553;28;20181;-81
2022/12/02 03:15:19;;;;;;;0.10;0.10;;;6.10;99.90;;;;;;5063223;28;20208;-81
2022/12/02 03:17:45;;;;;;;0.03;0.03;;;6.10;99.90;;;;;;5063729;28;20181;-81
2022/12/02 03:20:11;;;;;;;0.10;0.10;;;6.10;99.90;;;;;;5063177;28;20276;-81
2022/12/02 03:22:36;;;;;;;0.10;0.10;;;6.20;99.90;;;;;;5063048;28;20191;-81
2022/12/02 03:25:03;;;;;;;0.00;0.00;;;6.10;99.90;;;;;;5065238;28;20216;-80
2022/12/02 03:27:29;;;;;;;0.10;0.10;;;5.80;99.90;;;;;;5065948;28;20696;-81
2022/12/02 03:29:55;;;;;;;0.10;0.10;;;5.50;99.90;;;;;;5067339;28;20193;-81
2022/12/02 03:32:21;;;;;;;0.10;0.10;;;5.50;99.90;;;;;;5065932;28;20185;-81
2022/12/02 03:34:46;;;;;;;0.10;0.10;;;5.60;99.90;;;;;;5066128;28;20212;-80
2022/12/02 03:37:12;;;;;;;0.10;0.10;;;5.50;99.90;;;;;;5066473;28;20605;-81
2022/12/02 03:39:38;;;;;;;0.10;0.10;;;5.40;99.90;;;;;;5065892;28;21132;-81
2022/12/02 03:42:04;;;;;;;0.10;0.10;;;5.40;99.90;;;;;;5064769;28;20189;-81
2022/12/02 03:44:30;;;;;;;0.00;0.00;;;5.30;99.90;;;;;;5065965;28;20189;-81
2022/12/02 03:46:55;;;;;;;0.10;0.10;;;5.40;99.90;;;;;;5064802;28;20246;-81
2022/12/02 03:49:21;;;;;;;0.00;0.00;;;5.30;99.90;;;;;;5065811;28;20189;-81
2022/12/02 03:51:47;;;;;;;0.10;0.10;;;5.10;99.90;;;;;;5067487;28;20192;-81
2022/12/02 03:54:13;;;;;;;0.00;0.00;;;5.10;99.90;;;;;;5065455;28;20218;-80
2022/12/02 03:56:40;;;;;;;0.10;0.10;;;5.30;99.90;;;;;;5066424;28;20197;-81
2022/12/02 03:59:07;;;;;;;0.10;0.10;;;5.40;99.90;;;;;;5065763;28;20196;-81
2022/12/02 04:01:32;;;;;;;0.10;0.10;;;5.40;99.90;;;;;;5065670;28;20243;-81
2022/12/02 04:03:58;;;;;;;0.10;0.10;;;5.30;99.90;;;;;;5065325;28;20187;-81
2022/12/02 04:06:24;;;;;;;0.10;0.10;;;5.20;99.90;;;;;;5064256;28;20212;-81
2022/12/02 04:08:49;;;;;;;0.10;0.10;;;5.10;99.90;;;;;;5065384;28;21353;-81
2022/12/02 04:11:15;;;;;;;0.10;0.10;;;5.00;99.90;;;;;;5067347;28;20276;-81
2022/12/02 04:13:41;;;;;;;0.10;0.10;;;4.90;99.90;;;;;;5064748;28;20220;-81
2022/12/02 04:16:06;;;;;;;0.10;0.10;;;4.90;99.90;;;;;;5066381;28;20717;-81
2022/12/02 04:18:32;;;;;;;0.00;0.00;;;4.90;99.90;;;;;;5065103;28;20275;-81
2022/12/02 04:20:58;;;;;;;0.10;0.10;;;4.80;99.90;;;;;;5066129;28;20192;-81
2022/12/02 04:23:23;;;;;;;0.10;0.10;;;4.80;99.90;;;;;;5064266;28;20181;-81
2022/12/02 04:25:49;;;;;;;0.10;0.10;;;4.80;99.90;;;;;;5065630;28;20266;-80
2022/12/02 04:28:14;;;;;;;0.00;0.00;;;4.90;99.90;;;;;;5064584;28;20286;-80
2022/12/02 04:30:40;;;;;;;0.10;0.10;;;4.90;99.90;;;;;;5065955;28;20193;-81
2022/12/02 04:33:05;;;;;;;0.10;0.10;;;5.10;99.90;;;;;;5064999;28;20260;-81
2022/12/02 04:35:31;;;;;;;0.10;0.10;;;5.10;99.90;;;;;;5063785;28;20212;-81
2022/12/02 04:37:57;;;;;;;0.10;0.10;;;5.20;99.90;;;;;;5064896;28;20189;-80
2022/12/02 04:40:22;;;;;;;0.10;0.10;;;5.20;99.90;;;;;;5064686;28;20220;-81
2022/12/02 04:42:48;;;;;;;0.23;0.23;;;5.30;99.90;;;;;;5066649;28;20184;-81
2022/12/02 04:45:14;;;;;;;0.10;0.10;;;5.20;99.90;;;;;;5063562;28;20865;-81
2022/12/02 04:47:40;;;;;;;0.10;0.10;;;5.00;99.90;;;;;;5064246;28;20180;-80
2022/12/02 04:50:06;;;;;;;0.10;0.10;;;5.00;99.90;;;;;;5063681;28;20184;-81
2022/12/02 04:52:32;;;;;;;0.10;0.10;;;4.90;99.90;;;;;;5082250;28;20574;-80
2022/12/02 04:54:58;;;;;;;0.10;0.10;;;5.00;99.90;;;;;;5063128;28;20302;-81
2022/12/02 04:57:23;;;;;;;0.10;0.10;;;5.10;99.90;;;;;;5065163;28;20545;-81
2022/12/02 04:59:49;;;;;;;0.00;0.00;;;5.10;99.90;;;;;;5066653;28;20165;-81
2022/12/02 05:02:14;;;;;;;0.07;0.07;;;5.00;99.90;;;;;;5066348;28;20189;-81
2022/12/02 05:04:40;;;;;;;0.10;0.10;;;5.00;99.90;;;;;;5067619;28;20273;-81
2022/12/02 05:07:05;;;;;;;0.10;0.10;;;5.10;99.90;;;;;;5066421;28;20195;-81
2022/12/02 05:09:31;;;;;;;0.10;0.10;;;5.20;99.90;;;;;;5067147;28;20214;-80
2022/12/02 05:11:56;;;;;;;0.10;0.10;;;5.00;99.90;;;;;;5066246;28;20181;-81
2022/12/02 05:14:22;;;;;;;0.10;0.10;;;5.00;99.90;;;;;;5066841;28;20228;-80
2022/12/02 05:16:48;;;;;;;0.10;0.10;;;5.20;99.90;;;;;;5065538;28;20177;-81
2022/12/02 05:19:14;;;;;;;0.10;0.10;;;5.30;99.90;;;;;;5066213;28;20262;-81
2022/12/02 05:21:39;;;;;;;0.10;0.10;;;5.50;99.90;;;;;;5066863;28;20335;-80
2022/12/02 05:24:05;;;;;;;0.10;0.10;;;5.50;99.90;;;;;;5066219;28;20188;-81
2022/12/02 05:26:31;;;;;;;0.10;0.10;;;5.60;99.90;;;;;;5064514;28;20771;-81
2022/12/02 05:28:56;;;;;;;0.10;0.10;;;5.60;99.90;;;;;;5063247;28;20195;-81
2022/12/02 05:31:22;;;;;;;0.10;0.10;;;5.70;99.90;;;;;;5063988;28;20193;-80
2022/12/02 05:33:47;;;;;;;0.00;0.00;;;5.80;99.90;;;;;;5066150;28;20818;-82
2022/12/02 05:36:13;;;;;;;0.10;0.10;;;5.90;99.90;;;;;;5064127;28;20205;-81
2022/12/02 05:38:39;;;;;;;0.00;0.00;;;5.90;99.90;;;;;;5064526;28;20188;-80
2022/12/02 05:41:05;;;;;;;0.00;0.00;;;5.80;99.90;;;;;;5063561;28;20188;-81
2022/12/02 05:43:38;;;;;;;0.10;0.10;;;5.60;99.90;;;;;;5063401;28;20279;-81
2022/12/02 05:46:12;;;;;;;0.00;0.00;;;5.60;99.90;;;;;;5063754;28;20240;-82
2022/12/02 05:48:38;;;;;;;0.10;0.10;;;5.60;99.90;;;;;;5066268;28;20697;-81
2022/12/02 05:51:13;;;;;;;0.10;0.10;;;5.50;99.90;;;;;;5067106;28;20220;-81
2022/12/02 05:53:41;;;;;;;0.10;0.10;;;5.40;99.90;;;;;;5063719;28;20257;-81
2022/12/02 05:56:21;;;;;;;0.10;0.10;;;5.60;99.90;;;;;;5063456;28;20250;-81
2022/12/02 05:58:47;;;;;;;0.10;0.10;;;5.50;99.90;;;;;;5062285;28;20176;-81
2022/12/02 06:01:20;;;;;;;0.00;0.00;;;5.60;99.90;;;;;;5064263;28;20191;-81
2022/12/02 06:03:46;;;;;;;0.10;0.10;;;5.70;99.90;;;;;;5063130;28;20308;-81
2022/12/02 06:06:12;;;;;;;0.10;0.10;;;5.20;99.90;;;;;;5064412;28;20204;-81
2022/12/02 06:08:37;;;;;;;0.00;0.00;;;5.20;99.90;;;;;;5064223;28;20684;-82
2022/12/02 06:11:19;;;;;;;0.10;0.10;;;5.20;99.90;;;;;;5065122;28;20193;-82
2022/12/02 06:13:44;;;;;;;0.03;0.03;;;5.00;99.90;;;;;;5062074;28;20320;-83
2022/12/02 06:16:20;;;;;;;0.10;0.10;;;4.90;99.90;;;;;;5063556;28;20681;-82
2022/12/02 06:18:46;;;;;;;0.10;0.10;;;4.80;99.90;;;;;;5061585;28;20183;-81
2022/12/02 06:21:15;;;;;;;0.10;0.10;;;4.70;99.90;;;;;;5064258;28;20554;-82
2022/12/02 06:23:44;;;;;;;0.10;0.10;;;4.70;99.90;;;;;;5061763;28;20193;-81
2022/12/02 06:26:14;;;;;;;0.00;0.00;;;4.70;99.90;;;;;;5058014;28;21382;-80
2022/12/02 06:28:41;;;;;;;0.10;0.10;;;4.70;99.90;;;;;;5062163;28;20179;-80
2022/12/02 06:31:15;;;;;;;0.10;0.10;;;4.70;99.90;;;;;;5062903;28;20212;-81
2022/12/02 06:33:42;;;;;;;0.10;0.10;;;4.70;99.90;;;;;;5063827;28;20251;-81
2022/12/02 06:36:16;;;;;;;0.10;0.10;;;4.90;99.90;;;;;;5064559;28;20208;-81
2022/12/02 06:39:12;;;;;;;0.10;0.10;;;5.00;99.90;;;;;;5064882;28;20196;-80
2022/12/02 06:41:39;;;;;;;0.10;0.10;;;4.90;99.90;;;;;;5062981;28;20307;-81
2022/12/02 06:47:19;;;;;;;0.10;0.10;;;4.80;99.90;;;;;;5065162;28;20189;-80
2022/12/02 06:49:44;;;;;;;0.10;0.10;;;4.70;99.90;;;;;;5064081;28;20242;-80
2022/12/02 06:52:20;;;;;;;0.10;0.10;;;4.70;99.90;;;;;;5066736;28;20196;-81
2022/12/02 06:54:46;;;;;;;0.10;0.10;;;4.80;99.90;;;;;;5082431;28;20215;-84
2022/12/02 06:57:15;;;;;;;0.10;0.10;;;5.00;99.90;;;;;;5063689;28;20177;-81
2022/12/02 06:59:45;;;;;;;0.00;0.00;;;5.20;99.90;;;;;;5065198;28;20535;-81
2022/12/02 07:02:30;;;;;;;0.00;0.00;;;5.10;99.90;;;;;;5065004;28;20181;-80
2022/12/02 07:04:57;;;;;;;0.10;0.10;;;5.20;99.90;;;;;;5063947;28;20215;-81
2022/12/02 07:07:28;;;;;;;0.10;0.10;;;5.20;99.90;;;;;;5076954;28;20267;-82
2022/12/02 07:10:12;;;;;;;0.10;0.10;;;5.30;99.90;;;;;;5062032;28;20278;-82
2022/12/02 07:12:44;;;;;;;0.03;0.03;;;5.50;99.90;;;;;;5064065;28;20184;-82
2022/12/02 07:15:29;;;;;;;0.00;0.00;;;5.50;99.90;;;;;;5061308;28;20216;-82
2022/12/02 07:18:09;;;;;;;0.10;0.10;;;5.60;99.90;;;;;;5062608;28;20177;-82
2022/12/02 07:20:38;;;;;;;0.10;0.10;;;5.60;99.90;;;;;;5062949;28;20180;-82
2022/12/02 07:23:15;;;;;;;0.00;0.00;;;5.60;99.90;;;;;;5064077;28;20181;-82
2022/12/02 07:25:51;;;;;;;0.10;0.10;;;5.60;99.90;;;;;;5062913;28;20618;-81
2022/12/02 07:28:31;;;;;;;0.10;0.10;;;5.60;99.90;;;;;;5062449;28;20608;-82
2022/12/02 07:31:01;;;;;;;0.10;0.10;;;5.50;99.90;;;;;;5063624;28;20198;-83
2022/12/02 07:33:27;;;;;;;0.10;0.10;;;5.50;99.90;;;;;;5062465;28;20205;-82
2022/12/02 07:35:53;;;;;;;0.10;0.10;;;5.60;99.90;;;;;;5063022;28;20972;-82
2022/12/02 07:38:19;;;;;;;0.10;0.10;;;5.60;99.90;;;;;;5062247;28;20195;-82
2022/12/02 07:40:44;;;;;;;0.00;0.00;;;5.70;99.90;;;;;;5064204;28;20189;-82
2022/12/02 07:43:11;;;;;;;0.03;0.03;;;5.60;99.90;;;;;;5062034;28;20181;-82
2022/12/02 07:45:36;;;;;;;0.10;0.10;;;5.80;99.90;;;;;;5063028;28;20222;-82
2022/12/02 07:48:02;;;;;;;0.10;0.10;;;5.60;99.90;;;;;;5062789;28;20186;-82
2022/12/02 07:50:28;;;;;;;0.10;0.10;;;5.30;99.90;;;;;;5064130;28;20264;-82
2022/12/02 07:52:53;;;;;;;0.10;0.10;;;5.30;99.90;;;;;;5062683;28;20193;-82
2022/12/02 07:55:19;;;;;;;0.10;0.10;;;5.30;99.90;;;;;;5062358;28;20219;-82
2022/12/02 07:57:44;;;;;;;0.10;0.10;;;5.30;99.90;;;;;;5061962;28;20194;-81
2022/12/02 08:00:11;;;;;;;0.10;0.10;;;5.30;99.90;;;;;;5061389;28;20660;-82
2022/12/02 08:02:36;;;;;;;0.10;0.10;;;5.30;99.90;;;;;;5062861;28;20185;-82
2022/12/02 08:05:02;;;;;;;0.10;0.10;;;5.10;99.90;;;;;;5060802;28;20570;-81
2022/12/02 08:07:28;;;;;;;0.10;0.10;;;5.10;99.90;;;;;;5064199;28;20185;-81
2022/12/02 08:09:53;;;;;;;0.00;0.00;;;4.90;99.90;;;;;;5063827;28;20202;-81
2022/12/02 08:12:19;;;;;;;0.00;0.00;;;5.00;99.90;;;;;;5065241;28;20283;-81
2022/12/02 08:14:45;;;;;;;0.10;0.10;;;4.70;99.90;;;;;;5064957;28;20219;-81
2022/12/02 08:17:10;;;;;;;0.00;0.00;;;4.50;99.90;;;;;;5067637;28;20671;-81
2022/12/02 08:19:36;;;;;;;0.10;0.10;;;4.40;99.90;;;;;;5065647;28;20198;-81
2022/12/02 08:22:02;;;;;;;0.10;0.10;;;4.30;99.90;;;;;;5066401;28;20595;-81
2022/12/02 08:24:27;;;;;;;0.00;0.00;;;4.20;99.90;;;;;;5065638;28;20518;-81
2022/12/02 08:26:53;;;;;;;0.10;0.10;;;4.10;99.90;;;;;;5067548;28;20181;-81
2022/12/02 08:29:18;;;;;;;0.37;0.37;;;4.20;99.90;;;;;;5066304;28;20191;-80
2022/12/02 08:31:44;;;;;;;0.03;0.03;;;4.10;99.90;;;;;;5067264;28;20187;-81
2022/12/02 08:34:09;;;;;;;0.00;0.00;;;4.10;99.90;;;;;;5066010;28;20208;-80
2022/12/02 08:36:35;;;;;;;0.10;0.10;;;3.90;99.90;;;;;;5067367;28;20245;-81
2022/12/02 08:39:04;;;;;;;0.10;0.10;;;4.00;99.90;;;;;;5065414;28;20195;-81
2022/12/02 08:41:31;;;;;;;0.10;0.10;;;4.00;99.90;;;;;;5066310;28;20365;-81
2022/12/02 08:43:58;;;;;;;0.10;0.10;;;4.00;99.90;;;;;;5066644;28;20195;-81
2022/12/02 08:46:24;;;;;;;0.10;0.10;;;4.00;99.90;;;;;;5065436;28;20306;-81
2022/12/02 08:48:49;;;;;;;0.07;0.07;;;4.00;99.90;;;;;;5066408;28;21064;-81
2022/12/02 08:51:15;;;;;;;0.10;0.10;;;4.00;99.90;;;;;;5065624;28;20187;-81
2022/12/02 08:53:40;;;;;;;0.10;0.10;;;3.90;99.90;;;;;;5066939;28;20212;-81
2022/12/02 08:56:06;;;;;;;0.10;0.10;;;3.80;99.90;;;;;;5067958;28;20263;-80
2022/12/02 08:58:31;;;;;;;0.00;0.00;;;3.70;99.90;;;;;;5064963;28;20192;-81
2022/12/02 09:00:57;;;;;;;0.10;0.10;;;3.70;99.90;;;;;;5065477;28;20180;-81
2022/12/02 09:03:22;;;;;;;0.10;0.10;;;3.70;99.90;;;;;;5064986;28;20252;-80
2022/12/02 09:05:48;;;;;;;0.00;0.00;;;3.70;99.90;;;;;;5065157;28;20630;-84
2022/12/02 09:08:14;;;;;;;0.10;0.10;;;3.60;99.90;;;;;;5065301;28;20271;-84
2022/12/02 09:10:40;;;;;;;0.10;0.10;;;3.60;99.90;;;;;;5066036;28;20280;-83
2022/12/02 09:13:06;;;;;;;0.10;0.10;;;3.60;99.90;;;;;;5065946;28;20299;-84
2022/12/02 09:15:31;;;;;;;0.00;0.00;;;3.70;99.90;;;;;;5067146;28;20282;-84
2022/12/02 09:17:57;;;;;;;0.10;0.10;;;3.70;99.90;;;;;;5064041;28;20209;-84
2022/12/02 09:20:22;;;;;;;5.00;4.50;;;3.80;99.90;;;;;;5065273;28;20655;-84
2022/12/02 09:22:48;;;;;;;0.37;0.37;;;3.70;99.90;;;;;;5065261;28;20240;-84
2022/12/02 09:25:14;;;;;;;0.00;0.00;;;3.60;99.90;;;;;;5065287;28;20210;-84
2022/12/02 09:27:40;;;;;;;0.00;0.00;;;3.60;99.90;;;;;;5064039;28;20246;-84
2022/12/02 09:30:06;;;;;;;0.00;0.00;;;3.50;99.90;;;;;;5064090;28;20778;-84
2022/12/02 09:32:32;;;;;;;0.10;0.10;;;3.50;99.90;;;;;;5063541;28;20276;-84
2022/12/02 09:34:58;;;;;;;0.00;0.00;;;3.50;99.90;;;;;;5065082;28;20224;-84
2022/12/02 09:37:23;;;;;;;0.10;0.10;;;3.50;99.90;;;;;;5065087;28;20218;-84
2022/12/02 09:39:49;;;;;;;0.10;0.10;;;3.50;99.90;;;;;;5065367;28;20184;-84
2022/12/02 09:42:16;;;;;;;0.00;0.00;;;3.60;99.90;;;;;;5064193;28;20301;-84
2022/12/02 09:44:43;;;;;;;0.00;0.00;;;3.60;99.90;;;;;;5065089;28;20213;-84
2022/12/02 09:47:10;;;;;;;0.10;0.10;;;3.60;99.90;;;;;;5063497;28;20193;-85
2022/12/02 09:49:36;;;;;;;0.00;0.00;;;3.50;99.90;;;;;;5064951;28;20209;-84
2022/12/02 09:52:04;;;;;;;0.10;0.10;;;3.50;99.90;;;;;;5063573;28;20241;-84
2022/12/02 09:54:30;;;;;;;0.00;0.00;;;3.40;99.90;;;;;;5062879;28;20730;-84
2022/12/02 09:56:57;;;;;;;0.10;0.10;;;3.40;99.90;;;;;;5062330;28;20192;-84
2022/12/02 09:59:23;;;;;;;0.10;0.10;;;3.40;99.90;;;;;;5063768;28;20190;-84
2022/12/02 10:01:49;;;;;;;0.07;0.07;;;3.50;99.90;;;;;;5064001;28;20189;-84
2022/12/02 10:04:20;;;;;;;0.10;0.10;;;3.40;99.90;;;;;;5064537;28;20199;-83
2022/12/02 10:06:46;;;;;;;0.00;0.00;;;3.30;99.90;;;;;;5065223;28;20198;-83
2022/12/02 10:09:29;;;;;;;0.00;0.00;;;3.30;99.90;;;;;;5065677;28;20202;-84
2022/12/02 10:11:55;;;;;;;0.10;0.10;;;3.40;99.90;;;;;;5063268;28;20213;-84
2022/12/02 10:14:21;;;;;;;0.00;0.00;;;3.40;99.90;;;;;;5064959;28;20220;-84
2022/12/02 10:16:47;;;;;;;0.07;0.07;;;3.50;99.90;;;;;;5063493;28;20215;-84
2022/12/02 10:19:17;;;;;;;0.10;0.10;;;3.60;99.90;;;;;;5065128;28;20212;-82
2022/12/02 10:21:42;;;;;;;0.10;0.10;;;3.70;99.90;;;;;;5062346;28;20184;-83
2022/12/02 10:24:08;;;;;;;0.10;0.10;;;3.70;99.90;;;;;;5063880;28;20196;-84
2022/12/02 10:26:42;;;;;;;0.10;0.10;;;3.70;99.90;;;;;;5063081;28;20215;-83
2022/12/02 10:29:13;;;;;;;0.10;0.10;;;3.70;99.90;;;;;;5063654;28;20196;-84
2022/12/02 10:31:56;;;;;;;0.00;0.00;;;3.60;99.90;;;;;;5064666;28;20188;-84
2022/12/02 10:34:22;;;;;;;0.00;0.00;;;3.70;99.90;;;;;;5064408;28;20841;-84
2022/12/02 10:36:49;;;;;;;0.10;0.10;;;3.80;99.90;;;;;;5063609;28;20531;-84
2022/12/02 10:39:25;;;;;;;0.00;0.00;;;3.80;99.90;;;;;;5063768;28;20192;-84
2022/12/02 10:42:03;;;;;;;0.10;0.10;;;3.80;99.90;;;;;;5063172;28;20520;-84
2022/12/02 10:44:31;;;;;;;0.10;0.10;;;3.80;99.90;;;;;;5063799;28;20194;-84
2022/12/02 10:47:11;;;;;;;0.10;0.10;;;3.90;99.90;;;;;;5063756;28;20189;-84
2022/12/02 10:49:36;;;;;;;0.10;0.10;;;3.90;99.90;;;;;;5063121;28;20192;-84
2022/12/02 10:52:12;;;;;;;0.00;0.00;;;4.10;99.90;;;;;;5063264;28;20291;-84
2022/12/02 10:54:43;;;;;;;0.10;0.10;;;4.00;99.90;;;;;;5063392;28;20621;-84
2022/12/02 10:57:26;;;;;;;0.10;0.10;;;4.20;99.90;;;;;;5059867;28;20650;-84
2022/12/02 10:59:53;;;;;;;0.10;0.10;;;4.20;99.90;;;;;;5061729;28;20188;-85
2022/12/02 11:02:27;;;;;;;0.10;0.10;;;4.20;99.90;;;;;;5063082;28;20195;-84
2022/12/02 11:04:52;;;;;;;0.03;0.03;;;4.10;99.90;;;;;;5065043;28;20579;-84
2022/12/02 11:07:20;;;;;;;0.10;0.10;;;4.20;99.90;;;;;;5063354;28;20191;-84
2022/12/02 11:09:50;;;;;;;0.10;0.10;;;4.20;99.90;;;;;;5063449;28;20215;-84
2022/12/02 11:12:34;;;;;;;0.10;0.10;;;4.20;99.90;;;;;;5062572;28;20186;-85
2022/12/02 11:15:03;;;;;;;0.10;0.10;;;4.20;99.90;;;;;;5063527;28;20306;-84
2022/12/02 11:17:53;;;;;;;0.10;0.10;;;4.20;99.90;;;;;;5064842;28;20686;-84
2022/12/02 11:20:32;;;;;;;0.10;0.10;;;4.20;99.90;;;;;;5062963;28;20175;-82
2022/12/02 11:22:58;;;;;;;0.03;0.03;;;4.20;99.90;;;;;;5063553;28;20191;-84
2022/12/02 11:25:54;;;;;;;0.10;0.10;;;4.10;99.90;;;;;;5062343;28;20205;-85
2022/12/02 11:28:26;;;;;;;0.10;0.10;;;3.90;99.90;;;;;;5062931;28;20203;-84
2022/12/02 11:31:10;;;;;;;0.00;0.00;;;3.90;99.90;;;;;;5063900;28;20178;-86
2022/12/02 11:33:42;;;;;;;0.00;0.00;;;3.80;99.90;;;;;;5062652;28;20326;-84
2022/12/02 11:36:07;;;;;;;0.00;0.00;;;3.70;99.90;;;;;;5063605;28;20234;-84
2022/12/02 11:38:51;;;;;;;0.10;0.10;;;3.70;99.90;;;;;;5065199;28;20296;-85
2022/12/02 11:41:24;;;;;;;0.10;0.10;;;3.70;99.90;;;;;;5062737;28;20188;-83
2022/12/02 11:43:55;;;;;;;0.10;0.10;;;3.70;99.90;;;;;;5063150;28;20196;-83
2022/12/02 11:46:37;;;;;;;0.10;0.10;;;3.80;99.90;;;;;;5065307;28;20210;-84
2022/12/02 11:49:17;;;;;;;0.00;0.00;;;3.90;99.90;;;;;;5068243;28;20216;-84
2022/12/02 11:51:42;;;;;;;0.00;0.00;;;3.80;99.90;;;;;;5065932;28;20670;-84
2022/12/02 11:54:14;;;;;;;0.10;0.10;;;3.90;99.90;;;;;;5067093;28;20214;-84
2022/12/02 11:56:43;;;;;;;0.10;0.10;;;3.90;99.90;;;;;;5065050;28;20208;-84
2022/12/02 11:59:24;;;;;;;0.00;0.00;;;3.80;99.90;;;;;;5067095;28;20196;-84
2022/12/02 12:02:05;;;;;;;0.10;0.10;;;3.90;99.90;;;;;;5066145;28;20178;-85
2022/12/02 12:04:30;;;;;;;0.10;0.10;;;3.90;99.90;;;;;;5067090;28;20216;-84
2022/12/02 12:06:58;;;;;;;0.10;0.10;;;4.00;99.90;;;;;;5066234;28;20250;-82
2022/12/02 12:09:28;;;;;;;0.10;0.10;;;4.00;99.90;;;;;;5084599;28;20278;-84
2022/12/02 12:12:07;;;;;;;0.10;0.10;;;3.90;99.90;;;;;;5067199;28;20196;-84
2022/12/02 12:14:32;;;;;;;0.10;0.10;;;3.90;99.90;;;;;;5065920;28;20215;-83
2022/12/02 12:17:30;;;;;;;0.00;0.00;;;3.90;99.90;;;;;;5067641;28;20189;-84
2022/12/02 12:19:55;;;;;;;0.10;0.10;;;3.90;99.90;;;;;;5067512;28;20180;-84
2022/12/02 12:22:29;;;;;;;0.20;0.20;;;3.90;99.90;;;;;;5066804;28;20252;-86
2022/12/02 12:25:31;;;;;;;0.00;0.00;;;3.80;99.90;;;;;;5066273;28;20219;-84
2022/12/02 12:27:56;;;;;;;0.20;0.20;;;3.90;99.90;;;;;;5066792;28;20179;-84
2022/12/02 12:30:22;;;;;;;0.10;0.10;;;3.80;99.90;;;;;;5066649;28;20665;-84
2022/12/02 12:32:47;;;;;;;0.10;0.10;;;3.70;99.90;;;;;;5066884;28;20199;-83
2022/12/02 12:35:13;;;;;;;0.10;0.10;;;3.70;99.90;;;;;;5068549;28;20223;-84
2022/12/02 12:37:39;;;;;;;0.07;0.07;;;3.70;99.90;;;;;;5066591;28;20195;-84
2022/12/02 12:40:05;;;;;;;0.10;0.10;;;3.70;99.90;;;;;;5067524;28;20655;-84
2022/12/02 12:42:30;;;;;;;0.10;0.10;;;3.70;99.90;;;;;;5067219;28;20195;-84
2022/12/02 12:44:56;;;;;;;0.10;0.10;;;3.70;99.90;;;;;;5066086;28;20682;-83
2022/12/02 12:47:23;;;;;;;0.10;0.10;;;3.70;99.90;;;;;;5065810;28;20197;-84
2022/12/02 12:49:48;;;;;;;0.10;0.10;;;3.90;99.90;;;;;;5066144;28;20216;-84
2022/12/02 12:52:14;;;;;;;0.10;0.10;;;3.90;99.90;;;;;;5066075;28;20545;-84
2022/12/02 12:54:39;;;;;;;0.00;0.00;;;3.90;99.90;;;;;;5065998;28;20212;-82
2022/12/02 12:57:05;;;;;;;0.10;0.10;;;3.80;99.90;;;;;;5066022;28;20238;-84
2022/12/02 12:59:31;;;;;;;0.10;0.10;;;3.80;99.90;;;;;;5064492;28;20194;-84
2022/12/02 13:01:56;;;;;;;0.10;0.10;;;3.80;99.90;;;;;;5066096;28;20293;-84
2022/12/02 13:04:22;;;;;;;0.10;0.10;;;3.70;99.90;;;;;;5064752;28;20753;-84
2022/12/02 13:06:47;;;;;;;0.00;0.00;;;3.70;99.90;;;;;;5062168;28;20189;-81
2022/12/02 13:09:14;;;;;;;0.10;0.10;;;3.70;99.90;;;;;;5063531;28;20195;-81